Time;durP1;ratioP1;P1;durP2;ratioP2;P2;SDS_P1;SDS_P2;PMS_P1;PMS_P2;Temp;Humidity;BMP_temperature;BMP_pressure;BME280_temperature;BME280_humidity;BME280_pressure;Samples;Min_cycle;Max_cycle;Signal;HPM_P1;HPM_P2
2022/10/04 00:02:33;;;;;;;4.28;2.75;;;15.30;99.90;;;;;;5030541;28;20397;-65
2022/10/04 00:05:40;;;;;;;6.95;3.35;;;15.20;99.90;;;;;;5030794;28;20049;-65
2022/10/04 00:09:14;;;;;;;6.18;2.95;;;15.20;99.90;;;;;;5030716;28;20041;-65
2022/10/04 00:16:25;;;;;;;17.45;6.30;;;15.20;99.90;;;;;;5029982;28;20531;-65
2022/10/04 00:19:49;;;;;;;9.98;5.78;;;15.10;99.90;;;;;;5031052;28;20393;-65
2022/10/04 00:23:22;;;;;;;10.70;6.40;;;15.00;99.90;;;;;;5029570;28;20041;-65
2022/10/04 00:26:29;;;;;;;;;;;14.90;99.90;;;;;;5031236;28;20389;-65
2022/10/04 00:29:35;;;;;;;13.30;5.80;;;14.90;99.90;;;;;;5030454;28;19909;-65
2022/10/04 00:32:39;;;;;;;4.65;2.45;;;14.90;99.90;;;;;;5034471;28;20040;-65
2022/10/04 00:35:43;;;;;;;6.43;3.30;;;14.80;99.90;;;;;;5037331;28;20499;-65
2022/10/04 00:42:55;;;;;;;5.10;2.95;;;14.90;99.90;;;;;;5036989;28;20049;-65
2022/10/04 00:46:22;;;;;;;4.97;3.28;;;15.00;99.90;;;;;;5037357;28;20041;-65
2022/10/04 00:49:33;;;;;;;5.70;3.53;;;15.00;99.90;;;;;;5037067;28;20384;-65
2022/10/04 00:52:43;;;;;;;8.25;4.25;;;15.00;99.90;;;;;;5037121;28;20048;-65
2022/10/04 00:55:55;;;;;;;9.23;4.70;;;14.90;99.90;;;;;;5037415;28;20067;-66
2022/10/04 00:59:24;;;;;;;9.85;4.00;;;14.80;99.90;;;;;;5036927;28;20053;-65
2022/10/04 01:02:34;;;;;;;7.78;4.70;;;14.80;99.90;;;;;;5037031;28;20499;-65
2022/10/04 01:05:54;;;;;;;9.02;5.03;;;14.70;99.90;;;;;;5036399;28;20053;-65
2022/10/04 01:09:06;;;;;;;7.15;4.53;;;14.70;99.90;;;;;;5036849;28;20388;-65
2022/10/04 01:12:35;;;;;;;8.57;5.07;;;14.60;99.90;;;;;;5036569;28;20396;-65
2022/10/04 01:19:32;;;;;;;11.27;6.57;;;14.40;99.90;;;;;;5036774;28;20040;-66
2022/10/04 01:26:28;;;;;;;14.63;6.30;;;14.20;99.90;;;;;;5036445;28;20040;-65
2022/10/04 01:29:33;;;;;;;11.48;5.22;;;14.20;99.90;;;;;;5036746;28;20041;-66
2022/10/04 01:32:38;;;;;;;11.13;6.05;;;14.10;99.90;;;;;;5036751;28;20044;-65
2022/10/04 01:39:26;;;;;;;11.70;5.32;;;14.00;99.90;;;;;;5036718;28;20295;-64
2022/10/04 01:42:39;;;;;;;7.43;4.70;;;14.00;99.90;;;;;;5036516;28;20052;-66
2022/10/04 01:45:50;;;;;;;7.65;5.20;;;14.00;99.90;;;;;;5032924;28;20424;-65
2022/10/04 01:48:59;;;;;;;12.57;6.50;;;13.90;99.90;;;;;;5033131;28;20044;-65
2022/10/04 01:52:38;;;;;;;10.55;7.30;;;14.20;99.90;;;;;;5033270;28;20044;-65
2022/10/04 01:55:47;;;;;;;14.85;8.57;;;13.90;99.90;;;;;;5033232;28;20055;-65
2022/10/04 01:59:18;;;;;;;11.30;7.00;;;13.80;99.90;;;;;;5033010;28;20068;-65
2022/10/04 02:02:33;;;;;;;9.63;6.43;;;13.70;99.90;;;;;;5033019;28;20416;-65
2022/10/04 02:05:53;;;;;;;12.93;6.93;;;13.60;99.90;;;;;;5033047;28;20048;-65
2022/10/04 02:08:57;;;;;;;10.73;7.65;;;13.50;99.90;;;;;;5033050;28;20109;-65
2022/10/04 02:12:01;;;;;;;12.20;7.65;;;13.50;99.90;;;;;;5032990;28;20052;-65
2022/10/04 02:15:08;;;;;;;13.07;7.82;;;13.40;99.90;;;;;;5032587;28;20056;-65
2022/10/04 02:18:33;;;;;;;11.48;7.75;;;13.40;99.90;;;;;;5032694;28;20397;-65
2022/10/04 02:21:37;;;;;;;10.13;7.00;;;13.30;99.90;;;;;;5032193;28;20044;-65
2022/10/04 02:24:46;;;;;;;12.68;8.00;;;13.30;99.90;;;;;;5032543;28;20497;-65
2022/10/04 02:27:52;;;;;;;14.07;8.30;;;13.30;99.90;;;;;;5032664;28;20048;-65
2022/10/04 02:34:21;;;;;;;17.38;8.75;;;13.30;99.90;;;;;;5032362;28;20056;-65
2022/10/04 02:37:27;;;;;;;20.88;9.77;;;13.30;99.90;;;;;;5032000;28;20064;-65
2022/10/04 02:40:39;;;;;;;17.50;8.70;;;13.40;99.90;;;;;;5032394;28;20045;-65
2022/10/04 02:47:29;;;;;;;14.45;9.45;;;13.40;99.90;;;;;;5032075;28;20396;-66
2022/10/04 02:50:43;;;;;;;12.50;8.07;;;13.40;99.90;;;;;;5032128;28;20392;-65
2022/10/04 02:53:48;;;;;;;17.67;9.38;;;13.40;99.90;;;;;;5031517;28;20040;-65
2022/10/04 02:56:54;;;;;;;19.10;9.43;;;13.30;99.90;;;;;;5032230;28;20127;-65
2022/10/04 03:00:30;;;;;;;17.05;7.55;;;13.20;99.90;;;;;;5031979;28;20047;-65
2022/10/04 03:03:55;;;;;;;19.65;9.45;;;13.20;99.90;;;;;;5031963;28;20052;-65
2022/10/04 03:07:05;;;;;;;16.02;9.80;;;13.10;99.90;;;;;;5031139;28;20045;-65
2022/10/04 03:10:12;;;;;;;19.40;10.90;;;13.10;99.90;;;;;;5032047;28;20056;-65
2022/10/04 03:13:18;;;;;;;18.58;10.88;;;13.10;99.90;;;;;;5031492;28;20053;-65
2022/10/04 03:16:41;;;;;;;17.17;10.55;;;13.10;99.90;;;;;;5031580;28;20049;-65
2022/10/04 03:20:07;;;;;;;22.52;12.73;;;13.10;99.90;;;;;;5031495;28;20048;-65
2022/10/04 03:23:13;;;;;;;23.23;14.82;;;13.10;99.90;;;;;;5031262;28;20052;-65
2022/10/04 03:26:44;;;;;;;24.17;15.65;;;13.10;99.90;;;;;;5031245;28;20377;-65
2022/10/04 03:29:49;;;;;;;22.08;15.27;;;13.00;99.90;;;;;;5031255;28;20064;-64
2022/10/04 03:32:53;;;;;;;31.10;17.17;;;13.10;99.90;;;;;;5031140;28;20048;-65
2022/10/04 03:36:17;;;;;;;35.38;17.40;;;13.00;99.90;;;;;;5031229;28;20036;-65
2022/10/04 03:39:35;;;;;;;22.92;15.23;;;12.90;99.90;;;;;;5031234;28;20056;-65
2022/10/04 03:42:39;;;;;;;27.40;14.55;;;12.90;99.90;;;;;;5031232;28;20040;-64
2022/10/04 03:45:44;;;;;;;27.40;13.57;;;12.80;99.90;;;;;;5031201;28;20045;-65
2022/10/04 03:49:30;;;;;;;28.60;14.50;;;12.70;99.90;;;;;;5030984;28;20036;-65
2022/10/04 03:52:54;;;;;;;28.48;16.13;;;12.60;99.90;;;;;;5030827;28;20095;-64
2022/10/04 03:55:59;;;;;;;23.98;14.43;;;12.50;99.90;;;;;;5031424;28;20385;-64
2022/10/04 03:59:06;;;;;;;25.80;15.75;;;12.50;99.90;;;;;;5031229;28;20037;-64
2022/10/04 04:05:52;;;;;;;22.33;14.15;;;12.40;99.90;;;;;;5030750;28;20044;-64
2022/10/04 04:08:57;;;;;;;28.20;14.27;;;12.50;99.90;;;;;;5029636;28;20053;-65
2022/10/04 04:12:08;;;;;;;15.75;11.05;;;12.50;99.90;;;;;;5030766;28;20052;-65
2022/10/04 04:15:13;;;;;;;18.00;11.10;;;12.50;99.90;;;;;;5030085;28;20044;-64
2022/10/04 04:18:47;;;;;;;17.27;10.77;;;12.50;99.90;;;;;;5030781;28;20109;-65
2022/10/04 04:21:54;;;;;;;10.75;8.20;;;12.50;99.90;;;;;;5030343;28;20048;-64
2022/10/04 04:25:55;;;;;;;14.80;7.43;;;12.40;99.90;;;;;;5030192;28;20049;-65
2022/10/04 04:32:56;;;;;;;10.65;6.72;;;12.30;99.90;;;;;;5030505;28;20449;-65
2022/10/04 04:36:06;;;;;;;9.20;7.28;;;12.30;99.90;;;;;;5030191;28;20044;-65
2022/10/04 04:39:40;;;;;;;19.67;6.93;;;12.30;99.90;;;;;;5030212;28;20049;-64
2022/10/04 04:42:45;;;;;;;11.88;7.10;;;12.20;99.90;;;;;;5030057;28;20064;-64
2022/10/04 04:50:38;;;;;;;12.98;8.38;;;11.80;99.90;;;;;;5030346;28;20053;-64
2022/10/04 04:54:06;;;;;;;10.70;7.97;;;11.70;99.90;;;;;;5030515;28;20056;-64
2022/10/04 04:57:15;;;;;;;13.10;7.28;;;11.60;99.90;;;;;;5030372;28;20068;-64
2022/10/04 05:00:25;;;;;;;10.93;7.50;;;11.60;99.90;;;;;;5030333;28;20045;-65
2022/10/04 05:03:30;;;;;;;11.07;7.68;;;11.60;99.90;;;;;;5030006;28;20052;-65
2022/10/04 05:06:35;;;;;;;12.15;7.15;;;11.60;99.90;;;;;;5030276;28;20057;-65
2022/10/04 05:09:58;;;;;;;12.10;7.78;;;11.50;99.90;;;;;;5029968;28;20511;-65
2022/10/04 05:13:03;;;;;;;9.50;7.65;;;11.50;99.90;;;;;;5029506;28;20503;-64
2022/10/04 05:16:46;;;;;;;15.07;9.07;;;11.50;99.90;;;;;;5029864;28;20044;-64
2022/10/04 05:19:54;;;;;;;12.93;7.50;;;11.50;99.90;;;;;;5033600;28;20400;-64
2022/10/04 05:22:58;;;;;;;11.98;7.60;;;11.50;99.90;;;;;;5034050;28;20060;-66
2022/10/04 05:26:03;;;;;;;10.77;7.05;;;11.30;99.90;;;;;;5033754;28;20064;-65
2022/10/04 05:33:06;;;;;;;10.40;7.35;;;11.20;99.90;;;;;;5033512;28;20041;-65
2022/10/04 05:36:10;;;;;;;12.57;7.88;;;11.10;99.90;;;;;;5033656;28;20040;-65
2022/10/04 05:39:25;;;;;;;16.80;6.85;;;11.00;99.90;;;;;;5033291;28;20044;-65
2022/10/04 05:42:36;;;;;;;13.52;7.85;;;11.10;99.90;;;;;;5033321;28;20393;-64
2022/10/04 05:45:40;;;;;;;21.38;8.48;;;11.10;99.90;;;;;;5034350;28;20043;-65
2022/10/04 05:48:47;;;;;;;10.27;6.95;;;11.30;99.90;;;;;;5033809;28;20060;-64
2022/10/04 05:51:59;;;;;;;15.00;9.27;;;11.30;99.90;;;;;;5033643;28;20052;-65
2022/10/04 05:55:45;;;;;;;12.00;7.15;;;11.40;99.90;;;;;;5033194;28;20048;-64
2022/10/04 05:59:45;;;;;;;16.00;9.80;;;11.50;99.90;;;;;;5028561;28;20117;-64
2022/10/04 06:02:54;;;;;;;20.10;10.07;;;11.60;99.90;;;;;;5030900;28;20045;-64
2022/10/04 06:06:35;;;;;;;7.75;6.70;;;13.10;99.90;;;;;;5033280;28;20295;-65
2022/10/04 06:10:29;;;;;;;9.55;6.47;;;17.20;99.90;;;;;;5013593;28;20061;-65
2022/10/04 06:13:55;;;;;;;7.60;4.80;;;21.20;99.90;;;;;;5027673;28;20044;-65
2022/10/04 06:17:47;;;;;;;6.18;3.67;;;23.90;99.90;;;;;;5032510;28;20057;-65
2022/10/04 06:21:27;;;;;;;9.05;3.53;;;25.90;99.90;;;;;;5013148;28;20049;-65
2022/10/04 06:24:36;;;;;;;6.80;3.88;;;27.20;99.90;;;;;;5019604;28;20396;-65
2022/10/04 06:28:23;;;;;;;9.60;3.97;;;28.30;99.90;;;;;;5031016;28;20104;-66
2022/10/04 06:32:15;;;;;;;5.90;3.17;;;28.90;98.60;;;;;;5031081;28;20052;-66
2022/10/04 06:35:49;;;;;;;7.32;2.53;;;29.00;98.10;;;;;;5014228;28;20404;-65
2022/10/04 06:38:56;;;;;;;4.72;2.50;;;29.70;97.30;;;;;;5031280;28;20064;-66
2022/10/04 06:45:49;;;;;;;6.20;2.10;;;30.00;95.00;;;;;;5027370;28;20299;-65
2022/10/04 06:49:16;;;;;;;5.45;1.98;;;30.40;94.60;;;;;;5011925;28;20049;-65
2022/10/04 06:53:02;;;;;;;3.35;1.70;;;30.60;93.40;;;;;;5028629;28;20126;-65
2022/10/04 06:56:13;;;;;;;4.45;1.98;;;30.70;92.60;;;;;;5022913;28;20037;-65
2022/10/04 06:59:45;;;;;;;4.10;1.65;;;29.90;93.30;;;;;;5031389;28;20500;-65
2022/10/04 07:03:31;;;;;;;6.38;2.50;;;28.80;93.90;;;;;;5033281;28;20044;-66
2022/10/04 07:07:22;;;;;;;6.80;1.65;;;29.30;93.40;;;;;;5023184;28;20044;-65
2022/10/04 07:10:54;;;;;;;3.67;1.88;;;29.80;93.20;;;;;;5029059;28;20137;-66
2022/10/04 07:14:05;;;;;;;4.18;1.83;;;29.20;92.70;;;;;;5014033;28;20053;-65
2022/10/04 07:17:38;;;;;;;3.53;1.80;;;28.50;93.80;;;;;;5026640;28;20041;-66
2022/10/04 07:21:12;;;;;;;4.03;1.92;;;29.30;93.30;;;;;;5030554;28;20052;-66
2022/10/04 07:25:21;;;;;;;2.55;1.50;;;30.10;92.60;;;;;;5015496;28;20041;-66
2022/10/04 07:32:33;;;;;;;7.50;1.90;;;29.70;92.10;;;;;;5011023;28;20053;-65
2022/10/04 07:35:48;;;;;;;5.20;1.90;;;28.90;92.10;;;;;;5028358;28;20037;-65
2022/10/04 07:39:20;;;;;;;4.72;2.15;;;26.20;94.20;;;;;;5021527;28;20268;-66
2022/10/04 07:42:45;;;;;;;4.80;2.10;;;25.40;95.80;;;;;;5029017;28;20045;-66
2022/10/04 07:46:00;;;;;;;6.68;1.90;;;26.00;96.10;;;;;;5029912;28;20057;-65
2022/10/04 07:49:15;;;;;;;6.25;2.58;;;27.60;95.10;;;;;;5027432;28;20061;-66
2022/10/04 07:57:02;;;;;;;3.90;2.13;;;28.30;94.10;;;;;;5021049;28;20063;-65
2022/10/04 08:04:27;;;;;;;3.53;1.63;;;31.20;91.00;;;;;;5023758;28;20048;-66
2022/10/04 08:07:55;;;;;;;6.28;1.63;;;30.50;90.40;;;;;;5022818;28;20487;-66
2022/10/04 08:11:05;;;;;;;3.00;1.30;;;31.30;90.70;;;;;;5028537;28;20527;-65
2022/10/04 08:14:44;;;;;;;3.33;1.38;;;29.10;92.80;;;;;;5029496;28;20040;-66
2022/10/04 08:18:15;;;;;;;4.70;1.42;;;29.60;91.50;;;;;;5029163;28;20044;-66
2022/10/04 08:21:30;;;;;;;4.68;1.48;;;29.70;91.60;;;;;;5027147;28;20051;-66
2022/10/04 08:32:03;;;;;;;4.88;1.50;;;33.50;88.00;;;;;;5028911;28;20044;-65
2022/10/04 08:35:15;;;;;;;2.42;1.73;;;32.70;88.30;;;;;;5024877;28;20045;-65
2022/10/04 08:38:43;;;;;;;7.82;1.80;;;30.20;90.10;;;;;;5020138;28;20475;-65
2022/10/04 08:42:21;;;;;;;8.40;2.22;;;30.00;90.20;;;;;;5029464;28;20056;-66
2022/10/04 08:46:21;;;;;;;6.18;3.00;;;31.80;89.60;;;;;;5014245;28;20361;-65
2022/10/04 08:49:59;;;;;;;8.05;3.67;;;32.50;85.50;;;;;;5029706;28;20052;-65
2022/10/04 08:53:22;;;;;;;7.20;3.30;;;34.90;85.20;;;;;;5026847;28;20048;-66
2022/10/04 08:56:35;;;;;;;9.57;2.50;;;35.80;82.80;;;;;;5024893;28;20037;-66
2022/10/04 09:04:00;;;;;;;8.20;2.00;;;37.70;79.70;;;;;;5033535;28;20045;-66
2022/10/04 09:07:19;;;;;;;4.13;2.03;;;37.50;75.40;;;;;;5033490;28;20725;-66
2022/10/04 09:11:01;;;;;;;5.18;1.70;;;36.30;77.40;;;;;;5034714;28;20033;-66
2022/10/04 09:14:40;;;;;;;3.55;1.98;;;35.70;76.50;;;;;;5033471;28;20048;-66
2022/10/04 09:22:01;;;;;;;5.32;1.70;;;38.40;75.40;;;;;;5032680;28;20494;-66
2022/10/04 09:25:34;;;;;;;2.40;1.70;;;39.30;73.40;;;;;;5027248;28;20064;-65
2022/10/04 09:28:56;;;;;;;7.45;2.13;;;37.30;74.40;;;;;;5031977;28;20604;-66
2022/10/04 09:32:06;;;;;;;3.63;1.92;;;36.90;74.40;;;;;;5023244;28;20040;-66
2022/10/04 09:35:16;;;;;;;2.35;1.13;;;39.00;74.70;;;;;;5033269;28;20483;-66
2022/10/04 09:39:08;;;;;;;4.10;1.60;;;40.00;75.00;;;;;;5032465;28;20048;-66
2022/10/04 09:43:09;;;;;;;2.15;0.90;;;41.00;73.40;;;;;;5030437;28;20056;-66
2022/10/04 09:46:56;;;;;;;1.85;1.10;;;42.10;73.00;;;;;;5029711;28;20519;-66
2022/10/04 09:50:25;;;;;;;3.53;1.08;;;42.30;71.40;;;;;;5019661;28;20543;-64
2022/10/04 09:54:30;;;;;;;1.95;1.10;;;42.70;70.30;;;;;;5028110;28;20057;-66
2022/10/04 09:57:52;;;;;;;2.70;1.40;;;42.70;69.20;;;;;;5032197;28;20529;-63
2022/10/04 10:00:59;;;;;;;1.65;1.10;;;42.50;66.30;;;;;;5028312;28;20048;-66
2022/10/04 10:04:30;;;;;;;2.75;1.08;;;42.30;66.80;;;;;;5028542;28;20033;-67
2022/10/04 10:15:31;;;;;;;4.45;1.17;;;44.00;66.30;;;;;;5025564;28;20380;-64
2022/10/04 10:18:54;;;;;;;3.05;1.20;;;44.50;66.00;;;;;;5026183;28;20384;-64
2022/10/04 10:22:06;;;;;;;2.78;1.20;;;43.60;65.40;;;;;;5030466;28;20052;-66
2022/10/04 10:25:28;;;;;;;2.40;1.17;;;43.10;64.50;;;;;;5032013;28;20048;-66
2022/10/04 10:28:50;;;;;;;1.92;1.00;;;43.20;64.30;;;;;;5026312;28;20078;-65
2022/10/04 10:32:00;;;;;;;2.67;1.50;;;42.60;63.10;;;;;;5031152;28;20049;-66
2022/10/04 10:35:33;;;;;;;5.90;1.30;;;42.50;65.10;;;;;;5029050;28;20471;-66
2022/10/04 10:38:56;;;;;;;8.50;1.55;;;43.10;64.40;;;;;;5030728;28;20040;-66
2022/10/04 10:42:37;;;;;;;3.03;1.58;;;40.70;66.10;;;;;;5030276;28;20040;-66
2022/10/04 10:46:05;;;;;;;4.10;1.65;;;40.70;65.10;;;;;;5027997;28;20056;-66
2022/10/04 10:49:31;;;;;;;2.43;1.40;;;39.50;66.40;;;;;;5031255;28;20515;-66
2022/10/04 10:52:38;;;;;;;4.47;1.50;;;38.90;66.60;;;;;;5026178;28;20041;-66
2022/10/04 10:56:26;;;;;;;3.45;1.83;;;40.90;65.20;;;;;;5024829;28;20048;-66
2022/10/04 11:00:17;;;;;;;5.30;1.90;;;38.50;64.90;;;;;;5026441;28;20044;-66
2022/10/04 11:03:56;;;;;;;4.45;1.80;;;38.40;68.00;;;;;;5026743;28;20067;-66
2022/10/04 11:07:20;;;;;;;4.03;1.63;;;39.80;68.00;;;;;;5028386;28;20045;-66
2022/10/04 11:10:44;;;;;;;2.72;1.70;;;40.10;66.70;;;;;;5023004;28;20376;-66
2022/10/04 11:14:11;;;;;;;7.40;2.17;;;40.90;66.00;;;;;;5025247;28;20583;-66
2022/10/04 11:17:26;;;;;;;6.53;1.90;;;38.90;66.00;;;;;;5030147;28;20054;-66
2022/10/04 11:20:41;;;;;;;4.80;1.90;;;38.90;67.10;;;;;;5018061;28;20046;-66
2022/10/04 11:28:01;;;;;;;6.20;2.17;;;38.00;66.50;;;;;;5022773;28;20037;-65
2022/10/04 11:31:44;;;;;;;5.80;1.85;;;36.50;68.00;;;;;;5027653;28;20040;-66
2022/10/04 11:34:58;;;;;;;4.30;1.70;;;38.10;68.30;;;;;;5022091;28;20048;-66
2022/10/04 11:38:13;;;;;;;2.97;1.30;;;40.20;66.70;;;;;;5021081;28;20503;-66
2022/10/04 11:41:26;;;;;;;4.50;1.85;;;38.20;67.40;;;;;;5026261;28;20056;-66
2022/10/04 11:44:40;;;;;;;6.68;1.80;;;36.50;69.00;;;;;;5022298;28;20041;-66
2022/10/04 11:51:57;;;;;;;4.43;1.40;;;37.90;69.10;;;;;;5035171;28;20049;-66
2022/10/04 11:55:16;;;;;;;5.00;1.70;;;38.80;69.60;;;;;;5026139;28;20207;-66
2022/10/04 11:59:01;;;;;;;3.45;1.73;;;38.80;68.10;;;;;;5028693;28;20044;-66
2022/10/04 12:02:21;;;;;;;3.80;1.63;;;39.80;65.90;;;;;;5024616;28;20048;-66
2022/10/04 12:05:31;;;;;;;3.63;1.45;;;39.20;67.10;;;;;;5021199;28;20048;-66
2022/10/04 12:08:54;;;;;;;;;;;39.20;66.50;;;;;;5023956;28;20049;-66
2022/10/04 12:12:36;;;;;;;3.92;1.77;;;37.40;66.20;;;;;;5017493;28;19909;-66
2022/10/04 12:15:59;;;;;;;2.72;1.50;;;37.00;69.10;;;;;;5023916;28;20112;-66
2022/10/04 12:19:19;;;;;;;3.63;1.15;;;38.30;68.80;;;;;;5024789;28;20064;-66
2022/10/04 12:22:48;;;;;;;4.82;1.50;;;39.40;66.00;;;;;;5022377;28;20053;-66
2022/10/04 12:26:32;;;;;;;2.47;1.10;;;38.30;65.70;;;;;;5026378;28;20053;-66
2022/10/04 12:30:01;;;;;;;4.30;1.48;;;38.70;66.20;;;;;;5021692;28;20342;-66
2022/10/04 12:33:12;;;;;;;5.15;1.02;;;38.80;65.40;;;;;;5023155;28;20048;-66
2022/10/04 12:37:04;;;;;;;3.67;1.85;;;40.30;66.10;;;;;;5024127;28;20048;-66
2022/10/04 12:40:11;;;;;;;3.60;1.08;;;41.80;65.10;;;;;;5028310;28;20041;-64
2022/10/04 12:43:39;;;;;;;3.47;1.30;;;43.00;64.30;;;;;;5028707;28;20483;-64
2022/10/04 12:47:06;;;;;;;3.53;1.13;;;44.20;62.60;;;;;;5025810;28;20381;-64
2022/10/04 12:50:33;;;;;;;1.95;1.10;;;44.30;62.00;;;;;;5025318;28;20053;-64
2022/10/04 12:53:55;;;;;;;3.85;1.17;;;44.20;60.90;;;;;;5029117;28;20036;-65
2022/10/04 12:57:16;;;;;;;2.90;1.20;;;43.60;61.50;;;;;;5027884;28;20052;-65
2022/10/04 13:00:40;;;;;;;4.63;1.42;;;43.30;61.90;;;;;;5024480;28;20044;-67
2022/10/04 13:03:44;;;;;;;2.38;1.52;;;43.00;63.50;;;;;;5023799;28;20040;-66
2022/10/04 13:07:04;;;;;;;3.55;1.40;;;42.70;63.20;;;;;;5029321;28;20029;-66
2022/10/04 13:10:17;;;;;;;8.85;1.63;;;42.30;64.50;;;;;;5025101;28;20049;-66
2022/10/04 13:13:43;;;;;;;2.40;1.27;;;42.90;62.30;;;;;;5018546;28;20040;-65
2022/10/04 13:16:54;;;;;;;3.63;1.40;;;43.10;62.00;;;;;;5024531;28;20041;-66
2022/10/04 13:20:24;;;;;;;2.03;1.33;;;42.40;60.60;;;;;;5028628;28;20213;-66
2022/10/04 13:23:41;;;;;;;3.20;1.27;;;41.80;61.60;;;;;;5020059;28;20389;-66
2022/10/04 13:27:14;;;;;;;5.40;1.60;;;41.30;60.80;;;;;;5024130;28;20036;-66
2022/10/04 13:31:10;;;;;;;5.72;1.80;;;41.00;62.10;;;;;;5023807;28;20049;-65
2022/10/04 13:34:26;;;;;;;4.95;1.75;;;40.90;60.40;;;;;;5025569;28;20044;-66
2022/10/04 13:37:34;;;;;;;3.58;1.90;;;40.80;62.60;;;;;;5023611;28;20036;-65
2022/10/04 13:45:16;;;;;;;6.80;1.67;;;39.40;65.00;;;;;;5025009;28;20048;-66
2022/10/04 13:48:48;;;;;;;2.85;1.83;;;38.50;65.10;;;;;;5022021;28;20040;-65
2022/10/04 13:59:23;;;;;;;3.15;1.40;;;37.10;66.70;;;;;;5030633;28;20399;-65
2022/10/04 14:02:55;;;;;;;3.90;1.77;;;36.20;65.30;;;;;;5028537;28;20036;-65
2022/10/04 14:09:57;;;;;;;4.72;1.60;;;35.10;67.10;;;;;;5026409;28;20048;-65
2022/10/04 14:13:28;;;;;;;4.03;1.60;;;34.40;68.50;;;;;;5030076;28;20412;-65
2022/10/04 14:21:17;;;;;;;4.80;1.55;;;33.30;69.70;;;;;;5030903;28;20291;-65
2022/10/04 14:24:45;;;;;;;2.45;1.30;;;32.70;71.40;;;;;;5031562;28;20045;-65
2022/10/04 14:28:27;;;;;;;3.80;1.48;;;32.60;72.30;;;;;;5027572;28;20041;-65
2022/10/04 14:32:19;;;;;;;3.03;1.27;;;32.60;72.90;;;;;;5037116;28;20036;-65
2022/10/04 14:35:56;;;;;;;4.82;1.80;;;32.10;73.50;;;;;;5027774;28;20048;-65
2022/10/04 14:39:03;;;;;;;6.10;2.08;;;31.90;73.90;;;;;;5029960;28;20048;-64
2022/10/04 14:42:22;;;;;;;4.22;1.70;;;31.70;74.70;;;;;;5031630;28;20052;-64
2022/10/04 14:46:19;;;;;;;5.75;2.38;;;31.40;75.60;;;;;;5026698;28;20033;-66
2022/10/04 14:50:01;;;;;;;2.53;1.50;;;31.00;75.80;;;;;;5028041;28;20044;-66
2022/10/04 14:53:40;;;;;;;7.35;2.00;;;30.50;77.90;;;;;;5031533;28;20521;-66
2022/10/04 14:56:57;;;;;;;5.25;2.15;;;30.10;78.80;;;;;;5028337;28;20045;-66
2022/10/04 15:00:17;;;;;;;5.10;1.88;;;29.80;79.20;;;;;;5025841;28;20049;-65
2022/10/04 15:03:43;;;;;;;5.70;2.03;;;29.50;80.00;;;;;;5026939;28;20041;-66
2022/10/04 15:07:22;;;;;;;3.17;1.80;;;29.30;80.80;;;;;;5029707;28;20073;-65
2022/10/04 15:10:37;;;;;;;4.13;1.88;;;29.00;81.90;;;;;;5029607;28;20045;-66
2022/10/04 15:13:57;;;;;;;3.88;1.75;;;28.60;82.30;;;;;;5023677;28;20053;-66
2022/10/04 15:17:35;;;;;;;4.38;1.98;;;28.30;84.10;;;;;;5029540;28;20050;-65
2022/10/04 15:20:58;;;;;;;6.50;3.90;;;27.90;86.00;;;;;;5030450;28;20056;-65
2022/10/04 15:24:14;;;;;;;5.20;3.08;;;27.60;87.20;;;;;;5027759;28;20052;-65
2022/10/04 15:27:39;;;;;;;11.13;2.85;;;27.40;87.80;;;;;;5028662;28;20036;-65
2022/10/04 15:31:03;;;;;;;4.53;2.05;;;27.20;88.60;;;;;;5026427;28;20036;-66
2022/10/04 15:34:34;;;;;;;5.60;2.55;;;26.90;88.40;;;;;;5027200;28;20040;-65
2022/10/04 15:38:07;;;;;;;3.38;2.28;;;26.60;90.00;;;;;;5031060;28;20064;-65
2022/10/04 15:41:20;;;;;;;4.35;2.30;;;26.40;90.00;;;;;;5029790;28;20052;-65
2022/10/04 15:44:56;;;;;;;8.98;2.60;;;26.20;90.80;;;;;;5030233;28;20400;-65
2022/10/04 15:48:09;;;;;;;6.93;2.85;;;25.90;91.00;;;;;;5030851;28;20033;-65
2022/10/04 15:51:48;;;;;;;4.93;2.60;;;25.80;91.60;;;;;;5030772;28;20503;-65
2022/10/04 15:55:20;;;;;;;5.55;2.70;;;25.70;91.80;;;;;;5030375;28;20064;-65
2022/10/04 15:59:22;;;;;;;6.80;3.60;;;25.60;91.60;;;;;;5030281;28;20412;-65
2022/10/04 16:06:24;;;;;;;36.45;18.52;;;25.20;92.80;;;;;;5029189;28;20045;-66
2022/10/04 16:09:45;;;;;;;51.80;27.92;;;24.90;93.10;;;;;;5030324;28;20519;-65
2022/10/04 16:13:14;;;;;;;90.97;51.83;;;24.60;93.50;;;;;;5030173;28;20053;-65
2022/10/04 16:16:29;;;;;;;47.97;24.20;;;24.30;93.90;;;;;;5030033;28;20048;-65
2022/10/04 16:20:06;;;;;;;18.20;8.30;;;23.90;93.80;;;;;;5029299;28;20053;-66
2022/10/04 16:23:30;;;;;;;10.18;3.88;;;23.60;94.40;;;;;;5023746;28;20048;-66
2022/10/04 16:26:55;;;;;;;7.75;3.25;;;23.30;94.90;;;;;;5029703;28;20069;-66
2022/10/04 16:30:17;;;;;;;193.05;86.78;;;23.10;95.00;;;;;;5029807;28;20574;-66
2022/10/04 16:33:41;;;;;;;86.18;41.00;;;22.90;95.20;;;;;;5029398;28;20056;-65
2022/10/04 16:37:16;;;;;;;25.77;12.85;;;22.70;95.60;;;;;;5029721;28;20040;-66
2022/10/04 16:40:27;;;;;;;14.90;5.57;;;22.60;95.90;;;;;;5029967;28;20049;-66
2022/10/04 16:43:33;;;;;;;13.80;8.93;;;22.50;95.70;;;;;;5029703;28;20479;-67
2022/10/04 16:46:43;;;;;;;13.15;5.20;;;22.30;95.70;;;;;;5030040;28;20052;-67
2022/10/04 16:49:53;;;;;;;9.75;3.83;;;22.20;95.90;;;;;;5030059;28;20052;-66
2022/10/04 16:53:29;;;;;;;8.95;4.10;;;22.00;96.10;;;;;;5030065;28;20048;-67
2022/10/04 16:56:58;;;;;;;11.32;3.10;;;21.90;96.10;;;;;;5029748;28;20056;-66
2022/10/04 17:00:32;;;;;;;10.73;5.47;;;21.70;96.00;;;;;;5029778;28;20041;-66
2022/10/04 17:03:47;;;;;;;14.77;5.57;;;21.60;96.40;;;;;;5028960;28;20424;-66
2022/10/04 17:07:13;;;;;;;10.77;3.95;;;21.50;96.60;;;;;;5027578;28;20408;-66
2022/10/04 17:10:45;;;;;;;5.82;3.25;;;21.30;96.70;;;;;;5029607;28;20045;-66
2022/10/04 17:14:30;;;;;;;7.32;3.10;;;21.10;96.80;;;;;;5029320;28;20048;-66
2022/10/04 17:17:46;;;;;;;7.13;2.40;;;21.00;96.80;;;;;;5033169;28;20048;-66
2022/10/04 17:21:04;;;;;;;3.88;2.20;;;20.90;96.70;;;;;;5033722;28;20507;-67
2022/10/04 17:24:39;;;;;;;5.35;2.17;;;20.70;96.60;;;;;;5032627;28;20069;-66
2022/10/04 17:27:56;;;;;;;4.28;2.05;;;20.70;96.10;;;;;;5032820;28;20048;-67
2022/10/04 17:31:41;;;;;;;5.28;1.98;;;20.70;96.10;;;;;;5032113;28;20037;-66
2022/10/04 17:35:21;;;;;;;7.22;1.98;;;20.60;96.20;;;;;;5026422;28;20074;-66
2022/10/04 17:38:47;;;;;;;4.18;1.90;;;20.60;96.00;;;;;;5033491;28;20048;-66
2022/10/04 17:42:22;;;;;;;4.25;1.83;;;20.60;95.80;;;;;;5032734;28;20239;-66
2022/10/04 17:46:03;;;;;;;5.22;2.58;;;20.50;95.70;;;;;;5032338;28;20040;-66
2022/10/04 17:57:33;;;;;;;3.35;1.95;;;20.50;95.50;;;;;;5032817;28;20057;-67
2022/10/04 18:01:17;;;;;;;3.75;1.92;;;20.40;95.70;;;;;;5032755;28;20040;-67
2022/10/04 18:04:29;;;;;;;4.32;2.15;;;20.40;95.90;;;;;;5031128;28;20113;-66
2022/10/04 18:07:42;;;;;;;3.58;2.10;;;20.40;96.00;;;;;;5032704;28;20049;-66
2022/10/04 18:11:00;;;;;;;6.43;2.22;;;20.40;96.10;;;;;;5031568;28;20507;-66
2022/10/04 18:14:13;;;;;;;7.30;1.92;;;20.30;96.10;;;;;;5031928;28;20060;-66
2022/10/04 18:17:41;;;;;;;3.30;1.80;;;20.20;96.40;;;;;;5032135;28;20057;-66
2022/10/04 18:21:03;;;;;;;3.38;2.05;;;20.20;96.40;;;;;;5032209;28;20503;-67
2022/10/04 18:24:32;;;;;;;4.35;1.92;;;20.10;96.40;;;;;;5031776;28;20045;-66
2022/10/04 18:28:07;;;;;;;4.05;1.90;;;20.10;96.20;;;;;;5032176;28;20048;-66
2022/10/04 18:35:33;;;;;;;5.65;1.73;;;19.90;96.70;;;;;;5009257;28;20778;-67
2022/10/04 18:38:41;;;;;;;6.38;1.65;;;19.90;96.30;;;;;;5014943;28;20060;-66
2022/10/04 18:42:27;;;;;;;3.42;1.45;;;19.80;96.30;;;;;;5031299;28;20036;-65
2022/10/04 18:45:51;;;;;;;4.07;1.70;;;19.70;96.10;;;;;;5031367;28;20126;-66
2022/10/04 18:49:16;;;;;;;3.63;1.30;;;19.60;96.00;;;;;;5032406;28;20036;-67
2022/10/04 18:52:37;;;;;;;3.50;1.40;;;19.60;95.60;;;;;;5031939;28;20053;-67
2022/10/04 18:55:50;;;;;;;3.05;1.67;;;19.50;95.70;;;;;;5031333;28;20048;-67
2022/10/04 19:03:22;;;;;;;2.55;1.50;;;19.40;95.70;;;;;;5030884;28;20045;-66
2022/10/04 19:06:34;;;;;;;4.90;1.45;;;19.30;95.80;;;;;;5018755;28;20566;-66
2022/10/04 19:09:38;;;;;;;;;;;19.30;95.70;;;;;;5031676;28;20037;-66
2022/10/04 19:13:01;;;;;;;3.25;1.63;;;19.20;95.90;;;;;;5031548;28;19909;-66
2022/10/04 19:16:30;;;;;;;;;;;19.20;95.90;;;;;;5031468;28;20060;-66
2022/10/04 19:20:13;;;;;;;4.15;1.33;;;19.10;96.00;;;;;;5041561;28;19928;-65
2022/10/04 19:23:19;;;;;;;7.50;1.40;;;19.10;96.30;;;;;;5028060;28;20040;-66
2022/10/04 19:26:46;;;;;;;3.42;1.40;;;19.00;96.60;;;;;;5029812;28;20506;-66
2022/10/04 19:30:51;;;;;;;1.92;1.23;;;18.90;97.00;;;;;;5030231;28;20048;-66
2022/10/04 19:34:02;;;;;;;6.78;1.95;;;18.80;97.50;;;;;;5025616;28;20045;-65
2022/10/04 19:37:34;;;;;;;3.17;1.77;;;18.70;98.30;;;;;;5029949;28;20041;-65
2022/10/04 19:41:21;;;;;;;2.63;1.63;;;18.30;99.00;;;;;;5030866;28;20064;-65